createdAt,value
2017-05-12T00:01:53.679Z,52.40
2017-05-12T00:04:22.735Z,52.60
2017-05-12T00:06:52.070Z,51.90
2017-05-12T00:09:21.114Z,52.30
2017-05-12T00:11:50.174Z,52.30
2017-05-12T00:14:19.272Z,51.80
2017-05-12T00:16:48.334Z,51.70
2017-05-12T00:19:17.528Z,51.40
2017-05-12T00:21:46.603Z,51.50
2017-05-12T00:24:15.656Z,51.30
2017-05-12T00:26:44.763Z,51.20
2017-05-12T00:29:13.816Z,51.20
2017-05-12T00:31:43.762Z,51.00
2017-05-12T00:34:12.833Z,51.20
2017-05-12T00:36:41.890Z,51.70
2017-05-12T00:39:11.144Z,51.50
2017-05-12T00:41:40.221Z,50.90
2017-05-12T00:44:09.298Z,51.70
2017-05-12T00:46:38.391Z,52.30
2017-05-12T00:49:08.410Z,52.00
2017-05-12T00:51:37.478Z,51.70
2017-05-12T00:54:06.531Z,52.30
2017-05-12T00:56:35.638Z,52.10
2017-05-12T00:59:04.687Z,52.10
2017-05-12T01:01:34.618Z,52.50
2017-05-12T01:04:03.804Z,53.20
2017-05-12T01:06:32.872Z,54.10
2017-05-12T01:09:02.702Z,54.80
2017-05-12T01:11:31.772Z,56.00
2017-05-12T01:14:01.727Z,56.10
2017-05-12T01:16:30.811Z,56.60
2017-05-12T01:18:59.885Z,57.40
2017-05-12T01:21:29.724Z,56.50
2017-05-12T01:23:58.786Z,57.10
2017-05-12T01:26:28.618Z,57.30
2017-05-12T01:28:57.710Z,57.60
2017-05-12T01:31:26.907Z,57.70
2017-05-12T01:33:55.995Z,59.00
2017-05-12T01:36:25.803Z,59.20
2017-05-12T01:38:55.723Z,58.50
2017-05-12T01:41:24.780Z,59.70
2017-05-12T01:43:53.823Z,58.80
2017-05-12T01:46:23.011Z,58.70
2017-05-12T01:48:52.095Z,58.70
2017-05-12T01:51:21.903Z,58.40
2017-05-12T01:53:51.731Z,58.80
2017-05-12T01:56:21.774Z,59.70
2017-05-12T01:58:51.060Z,60.00
2017-05-12T02:01:20.118Z,58.80
2017-05-12T02:03:49.309Z,58.40
2017-05-12T02:06:18.504Z,58.50
2017-05-12T02:08:47.576Z,58.30
2017-05-12T02:11:16.636Z,57.50
2017-05-12T02:13:45.711Z,57.80
2017-05-12T02:16:14.756Z,58.20
2017-05-12T02:18:44.187Z,57.40
2017-05-12T02:21:13.239Z,57.20
2017-05-12T02:23:42.294Z,56.70
2017-05-12T02:26:11.606Z,56.30
2017-05-12T02:28:40.679Z,56.20
2017-05-12T02:31:10.549Z,56.80
2017-05-12T02:33:40.024Z,56.00
2017-05-12T02:36:09.100Z,56.50
2017-05-12T02:38:39.025Z,57.10
2017-05-12T02:41:08.448Z,57.00
2017-05-12T02:43:37.554Z,57.50
2017-05-12T02:46:06.648Z,56.90
2017-05-12T02:48:35.749Z,56.90
2017-05-12T02:51:04.822Z,57.60
2017-05-12T02:53:34.019Z,56.60
2017-05-12T02:56:03.079Z,57.30
2017-05-12T02:58:32.875Z,56.40
2017-05-12T03:01:02.070Z,56.30
2017-05-12T03:03:31.904Z,56.90
2017-05-12T03:06:00.996Z,56.80
2017-05-12T03:08:30.419Z,56.40
2017-05-12T03:10:59.518Z,56.20
2017-05-12T03:13:28.577Z,55.60
2017-05-12T03:15:57.658Z,55.90
2017-05-12T03:18:26.719Z,55.50
2017-05-12T03:20:56.000Z,55.10
2017-05-12T03:23:25.071Z,54.90
2017-05-12T03:25:54.881Z,55.10
2017-05-12T03:28:25.063Z,54.90
2017-05-12T03:30:54.127Z,54.90
2017-05-12T03:33:23.306Z,54.60
2017-05-12T03:35:52.517Z,54.90
2017-05-12T03:38:21.576Z,54.90
2017-05-12T03:40:51.529Z,54.50
2017-05-12T03:43:20.605Z,54.30
2017-05-12T03:45:49.676Z,54.70
2017-05-12T03:48:19.507Z,55.70
2017-05-12T03:50:48.591Z,54.90
2017-05-12T03:53:18.738Z,55.20
2017-05-12T03:55:47.803Z,55.60
2017-05-12T03:58:17.615Z,55.40
2017-05-12T04:00:47.450Z,55.30
2017-05-12T04:03:16.528Z,55.90
2017-05-12T04:05:46.361Z,55.60
2017-05-12T04:08:15.455Z,56.10
2017-05-12T04:10:44.755Z,56.70
2017-05-12T04:13:13.955Z,57.70
2017-05-12T04:15:43.766Z,57.80
2017-05-12T04:18:12.862Z,59.10
2017-05-12T04:20:42.170Z,59.10
2017-05-12T04:23:11.386Z,59.10
2017-05-12T04:25:40.454Z,59.80
2017-05-12T04:28:09.543Z,59.10
2017-05-12T04:30:38.743Z,59.60
2017-05-12T04:33:07.835Z,59.40
2017-05-12T04:35:36.899Z,59.90
2017-05-12T04:38:07.094Z,59.80
2017-05-12T04:40:36.933Z,60.50
2017-05-12T04:43:06.128Z,60.60
2017-05-12T04:45:35.359Z,60.00
2017-05-12T04:48:04.418Z,60.10
2017-05-12T04:50:34.227Z,60.10
2017-05-12T04:53:03.302Z,60.60
2017-05-12T04:55:32.387Z,60.00
2017-05-12T04:58:01.464Z,59.60
2017-05-12T05:00:30.534Z,59.90
2017-05-12T05:02:59.738Z,60.20
2017-05-12T05:05:28.808Z,59.50
2017-05-12T05:07:58.614Z,58.80
2017-05-12T05:10:27.733Z,58.80
2017-05-12T05:12:56.804Z,58.60
2017-05-12T05:15:25.930Z,58.80
2017-05-12T05:17:55.012Z,58.40
2017-05-12T05:20:24.232Z,57.90
2017-05-12T05:22:53.314Z,57.80
2017-05-12T05:25:22.374Z,58.20
2017-05-12T05:27:51.450Z,57.80
2017-05-12T05:30:20.514Z,57.60
2017-05-12T05:32:49.632Z,58.20
2017-05-12T05:35:18.723Z,58.60
2017-05-12T05:37:48.387Z,58.80
2017-05-12T05:40:17.473Z,58.80
2017-05-12T05:42:47.276Z,58.50
2017-05-12T05:45:17.123Z,58.50
2017-05-12T05:47:46.212Z,58.80
2017-05-12T05:50:15.410Z,58.10
2017-05-12T05:52:44.489Z,58.10
2017-05-12T05:55:14.301Z,57.70
2017-05-12T05:57:43.371Z,57.60
2017-05-12T06:00:12.485Z,57.00
2017-05-12T06:02:41.715Z,57.00
2017-05-12T06:05:10.801Z,56.70
2017-05-12T06:07:39.999Z,56.10
2017-05-12T06:10:09.096Z,55.90
2017-05-12T06:12:38.165Z,55.50
2017-05-12T06:15:07.272Z,54.70
2017-05-12T06:17:36.333Z,53.90
2017-05-12T06:20:05.524Z,53.60
2017-05-12T06:22:35.359Z,53.50
2017-05-12T06:25:04.481Z,53.40
2017-05-12T06:27:33.562Z,53.20
2017-05-12T06:30:02.623Z,53.40
2017-05-12T06:32:31.715Z,52.80
2017-05-12T06:35:00.807Z,52.60
2017-05-12T06:37:30.175Z,52.20
2017-05-12T06:39:59.251Z,52.30
2017-05-12T06:42:28.329Z,52.00
2017-05-12T06:44:57.429Z,52.10
2017-05-12T06:47:26.499Z,52.10
2017-05-12T06:49:55.658Z,51.30
2017-05-12T06:52:24.723Z,51.10
2017-05-12T06:54:53.825Z,50.30
2017-05-12T06:57:23.104Z,50.40
2017-05-12T06:59:52.296Z,50.30
2017-05-12T07:02:21.366Z,50.40
2017-05-12T07:04:50.419Z,49.70
2017-05-12T07:07:19.499Z,49.70
2017-05-12T07:09:48.579Z,50.00
2017-05-12T07:12:17.682Z,49.50
2017-05-12T07:14:46.757Z,49.40
2017-05-12T07:17:15.999Z,49.20
2017-05-12T07:19:45.066Z,49.10
2017-05-12T07:22:14.515Z,49.60
2017-05-12T07:24:43.594Z,49.10
2017-05-12T07:27:12.668Z,48.00
2017-05-12T07:29:41.753Z,48.10
2017-05-12T07:32:10.936Z,48.60
2017-05-12T07:34:40.022Z,49.00
2017-05-12T07:37:09.155Z,48.90
2017-05-12T07:39:38.264Z,49.10
2017-05-12T07:42:07.550Z,49.50
2017-05-12T07:44:36.775Z,49.40
2017-05-12T07:47:05.850Z,49.00
2017-05-12T07:49:35.363Z,49.40
2017-05-12T07:52:04.463Z,49.70
2017-05-12T07:54:33.539Z,50.70
2017-05-12T07:57:02.644Z,50.00
2017-05-12T07:59:31.713Z,50.00
2017-05-12T08:02:00.830Z,49.70
2017-05-12T08:04:29.886Z,50.10
2017-05-12T08:06:59.095Z,50.10
2017-05-12T08:09:28.207Z,50.40
2017-05-12T08:11:57.287Z,50.70
2017-05-12T08:14:26.388Z,50.30
2017-05-12T08:16:55.494Z,50.60
2017-05-12T08:19:24.718Z,50.20
2017-05-12T08:21:53.791Z,50.10
2017-05-12T08:24:22.859Z,50.60
2017-05-12T08:26:51.963Z,50.20
2017-05-12T08:29:21.023Z,50.30
2017-05-12T08:31:50.409Z,50.10
2017-05-12T08:34:19.483Z,49.40
2017-05-12T08:36:49.338Z,49.30
2017-05-12T08:39:18.475Z,48.80
2017-05-12T08:41:47.554Z,48.60
2017-05-12T08:44:16.659Z,48.40
2017-05-12T08:46:45.773Z,48.10
2017-05-12T08:49:14.863Z,48.30
2017-05-12T08:51:43.930Z,47.80
2017-05-12T08:54:12.990Z,48.20
2017-05-12T08:56:42.086Z,47.50
2017-05-12T08:59:11.146Z,47.40
2017-05-12T09:01:40.353Z,47.30
2017-05-12T09:04:09.422Z,47.30
2017-05-12T09:06:38.482Z,47.00
2017-05-12T09:09:07.690Z,47.20
2017-05-12T09:11:36.749Z,46.70
2017-05-12T09:14:05.826Z,46.30
2017-05-12T09:16:34.898Z,46.10
2017-05-12T09:19:03.974Z,46.10
2017-05-12T09:21:33.041Z,46.30
2017-05-12T09:24:03.155Z,45.60
2017-05-12T09:26:32.975Z,45.80
2017-05-12T09:29:02.069Z,46.30
2017-05-12T09:31:31.159Z,46.10
2017-05-12T09:34:00.231Z,45.60
2017-05-12T09:36:29.327Z,45.40
2017-05-12T09:38:59.205Z,45.30
2017-05-12T09:41:28.283Z,46.40
2017-05-12T09:43:57.351Z,44.50
2017-05-12T09:46:26.445Z,44.20
2017-05-12T09:48:55.518Z,45.90
2017-05-12T09:51:24.739Z,44.10
2017-05-12T09:53:53.824Z,43.30
2017-05-12T09:56:23.658Z,42.20
2017-05-12T09:58:52.770Z,40.70
2017-05-12T10:01:21.831Z,40.70
2017-05-12T10:03:51.666Z,40.40
2017-05-12T10:06:20.815Z,41.20
2017-05-12T10:08:49.995Z,40.50
2017-05-12T10:11:19.067Z,40.90
2017-05-12T10:13:48.155Z,43.60
2017-05-12T10:16:17.247Z,40.20
2017-05-12T10:18:46.318Z,42.70
2017-05-12T10:21:15.421Z,41.00
2017-05-12T10:23:44.483Z,40.70
2017-05-12T10:26:13.706Z,39.40
2017-05-12T10:28:42.782Z,40.00
2017-05-12T10:31:11.849Z,38.90
2017-05-12T10:33:40.927Z,39.90
2017-05-12T10:36:10.216Z,40.70
2017-05-12T10:38:39.424Z,39.10
2017-05-12T10:41:08.562Z,38.60
2017-05-12T10:43:37.614Z,40.30
2017-05-12T10:46:06.707Z,40.20
2017-05-12T10:48:35.793Z,39.70
2017-05-12T10:51:04.882Z,39.60
2017-05-12T10:53:33.942Z,39.30
2017-05-12T10:56:03.881Z,40.10
2017-05-12T10:58:32.951Z,40.40
2017-05-12T11:01:02.623Z,40.20
2017-05-12T11:03:31.706Z,40.00
2017-05-12T11:06:00.990Z,38.90
2017-05-12T11:08:30.086Z,39.20
2017-05-12T11:10:59.200Z,40.40
2017-05-12T11:13:28.587Z,40.90
2017-05-12T11:15:57.679Z,41.90
2017-05-12T11:18:26.771Z,41.30
2017-05-12T11:20:55.867Z,41.50
2017-05-12T11:23:24.949Z,41.30
2017-05-12T11:25:54.071Z,40.00
2017-05-12T11:28:23.137Z,40.90
2017-05-12T11:30:52.358Z,39.60
2017-05-12T11:33:21.443Z,39.00
2017-05-12T11:35:50.515Z,39.80
2017-05-12T11:38:19.607Z,40.10
2017-05-12T11:40:48.715Z,38.80
2017-05-12T11:43:18.103Z,38.70
2017-05-12T11:45:47.185Z,37.70
2017-05-12T11:48:16.985Z,37.10
2017-05-12T11:50:46.853Z,36.80
2017-05-12T11:53:15.919Z,35.50
2017-05-12T11:55:45.139Z,35.60
2017-05-12T11:58:14.222Z,34.90
2017-05-12T12:00:43.388Z,36.10
2017-05-12T12:03:12.470Z,36.40
2017-05-12T12:05:41.657Z,34.80
2017-05-12T12:08:10.743Z,35.20
2017-05-12T12:10:39.884Z,33.60
2017-05-12T12:13:08.995Z,34.90
2017-05-12T12:15:38.732Z,35.20
2017-05-12T12:18:07.984Z,34.70
2017-05-12T12:20:37.800Z,34.90
2017-05-12T12:23:06.875Z,34.60
2017-05-12T12:25:36.711Z,35.40
2017-05-12T12:28:05.786Z,35.60
2017-05-12T12:30:35.771Z,35.60
2017-05-12T12:33:04.846Z,35.80
2017-05-12T12:35:33.919Z,36.20
2017-05-12T12:38:03.348Z,36.50
2017-05-12T12:40:32.616Z,36.10
2017-05-12T12:43:02.627Z,35.30
2017-05-12T12:45:32.851Z,35.60
2017-05-12T12:48:02.643Z,35.50
2017-05-12T12:50:32.466Z,34.90
2017-05-12T12:53:02.395Z,35.10
2017-05-12T12:55:31.468Z,35.30
2017-05-12T12:58:01.262Z,36.10
2017-05-12T13:00:30.351Z,35.90
2017-05-12T13:02:59.419Z,35.00
2017-05-12T13:05:28.620Z,35.40
2017-05-12T13:07:57.683Z,36.00
2017-05-12T13:10:27.755Z,36.30
2017-05-12T13:12:57.591Z,36.50
2017-05-12T13:15:27.390Z,36.50
2017-05-12T13:17:57.322Z,36.70
2017-05-12T13:20:26.531Z,36.70
2017-05-12T13:22:55.594Z,36.20
2017-05-12T13:25:25.436Z,36.60
2017-05-12T13:27:54.503Z,36.40
2017-05-12T13:30:24.552Z,36.20
2017-05-12T13:32:54.465Z,36.60
2017-05-12T13:35:23.716Z,36.00
2017-05-12T13:37:52.801Z,35.60
2017-05-12T13:40:21.860Z,36.70
2017-05-12T13:42:51.155Z,36.20
2017-05-12T13:45:20.215Z,36.20
2017-05-12T13:47:50.053Z,36.40
2017-05-12T13:50:19.135Z,35.90
2017-05-12T13:52:48.221Z,36.40
2017-05-12T13:55:17.519Z,37.20
2017-05-12T13:57:47.327Z,37.20
2017-05-12T14:00:17.171Z,37.00
2017-05-12T14:02:46.398Z,36.80
2017-05-12T14:05:15.474Z,36.20
2017-05-12T14:07:44.749Z,36.20
2017-05-12T14:10:13.851Z,36.40
2017-05-12T14:12:42.914Z,35.90
2017-05-12T14:15:11.996Z,36.60
2017-05-12T14:17:41.219Z,37.40
2017-05-12T14:20:10.359Z,37.40
2017-05-12T14:22:39.478Z,37.80
2017-05-12T14:25:09.562Z,38.00
2017-05-12T14:27:38.625Z,38.00
2017-05-12T14:30:08.433Z,38.50
2017-05-12T14:32:38.464Z,39.10
2017-05-12T14:35:07.619Z,39.60
2017-05-12T14:37:37.498Z,39.90
2017-05-12T14:40:06.606Z,40.30
2017-05-12T14:42:35.824Z,40.80
2017-05-12T14:45:04.899Z,41.30
2017-05-12T14:47:33.968Z,42.00
2017-05-12T14:50:03.220Z,42.10
2017-05-12T14:52:32.279Z,42.10
2017-05-12T14:55:00.899Z,43.50
2017-05-12T14:57:30.035Z,45.50
2017-05-12T14:59:59.115Z,47.20
2017-05-12T15:02:28.529Z,48.70
2017-05-12T15:04:57.709Z,50.30
2017-05-12T15:07:26.915Z,51.20
2017-05-12T15:09:56.035Z,51.40
2017-05-12T15:12:26.128Z,51.90
2017-05-12T15:14:55.592Z,51.30
2017-05-12T15:17:25.440Z,51.50
2017-05-12T15:19:54.663Z,51.90
2017-05-12T15:22:23.751Z,52.60
2017-05-12T15:24:52.860Z,53.40
2017-05-12T15:27:21.943Z,53.70
2017-05-12T15:29:51.019Z,54.30
2017-05-12T15:32:20.214Z,55.20
2017-05-12T15:34:49.439Z,55.80
2017-05-12T15:37:18.526Z,56.60
2017-05-12T15:39:47.673Z,57.90
2017-05-12T15:42:16.740Z,59.00
2017-05-12T15:44:45.854Z,59.80
2017-05-12T15:47:14.957Z,61.20
2017-05-12T15:49:44.399Z,61.90
2017-05-12T15:52:13.491Z,62.60
2017-05-12T15:54:42.551Z,64.50
2017-05-12T15:57:11.691Z,63.70
2017-05-12T15:59:40.778Z,64.00
2017-05-12T16:02:09.867Z,64.30
2017-05-12T16:04:38.941Z,64.90
2017-05-12T16:07:08.071Z,65.70
2017-05-12T16:09:37.152Z,66.20
2017-05-12T16:12:06.253Z,67.70
2017-05-12T16:14:35.367Z,68.60
2017-05-12T16:17:04.463Z,69.70
2017-05-12T16:19:33.768Z,70.60
2017-05-12T16:22:02.854Z,70.90
2017-05-12T16:24:32.048Z,71.60
2017-05-12T16:27:01.135Z,71.70
2017-05-12T16:29:30.208Z,71.80
2017-05-12T16:32:00.031Z,71.70
2017-05-12T16:34:29.507Z,71.30
2017-05-12T16:36:59.352Z,72.10
2017-05-12T16:39:28.517Z,72.40
2017-05-12T16:41:57.647Z,72.00
2017-05-12T16:44:26.694Z,72.00
2017-05-12T16:46:55.890Z,72.50
2017-05-12T16:49:25.022Z,71.50
2017-05-12T16:51:54.102Z,72.10
2017-05-12T16:54:23.343Z,70.60
2017-05-12T16:56:52.395Z,69.90
2017-05-12T16:59:21.501Z,70.00
2017-05-12T17:01:51.291Z,70.40
2017-05-12T17:04:21.494Z,71.10
2017-05-12T17:06:50.536Z,69.80
2017-05-12T17:09:19.659Z,69.70
2017-05-12T17:11:48.735Z,70.00
2017-05-12T17:14:17.812Z,70.50
2017-05-12T17:16:47.011Z,71.00
2017-05-12T17:19:16.070Z,71.50
2017-05-12T17:21:45.147Z,71.80
2017-05-12T17:24:14.243Z,72.10
2017-05-12T17:26:43.311Z,71.20
2017-05-12T17:29:12.403Z,71.20
2017-05-12T17:31:41.458Z,71.00
2017-05-12T17:34:10.659Z,71.20
2017-05-12T17:36:39.760Z,70.30
2017-05-12T17:39:08.863Z,70.70
2017-05-12T17:41:37.963Z,70.10
2017-05-12T17:44:07.042Z,70.00
2017-05-12T17:46:37.081Z,70.90
2017-05-12T17:49:06.155Z,71.30
2017-05-12T17:51:35.247Z,71.40
2017-05-12T17:54:04.340Z,71.70
2017-05-12T17:56:33.434Z,71.70
2017-05-12T17:59:03.447Z,71.30
2017-05-12T18:01:32.527Z,72.50
2017-05-12T18:04:01.603Z,73.00
2017-05-12T18:06:30.719Z,73.30
2017-05-12T18:09:00.535Z,72.50
2017-05-12T18:11:30.691Z,73.20
2017-05-12T18:13:59.795Z,73.60
2017-05-12T18:16:28.883Z,74.10
2017-05-12T18:19:00.911Z,74.10
2017-05-12T18:21:34.036Z,74.90
2017-05-12T18:24:03.121Z,75.90
2017-05-12T18:26:32.195Z,75.80
2017-05-12T18:29:02.590Z,76.00
2017-05-12T18:31:31.642Z,76.70
2017-05-12T18:34:00.702Z,77.30
2017-05-12T18:36:30.531Z,77.20
2017-05-12T18:38:59.643Z,76.60
2017-05-12T18:41:28.954Z,75.80
2017-05-12T18:43:58.947Z,76.00
2017-05-12T18:46:28.049Z,76.50
2017-05-12T18:48:57.142Z,77.40
2017-05-12T18:51:26.223Z,76.60
2017-05-12T18:53:55.543Z,76.90
2017-05-12T18:56:24.740Z,76.40
2017-05-12T18:58:53.807Z,76.50
2017-05-12T19:01:23.650Z,76.60
2017-05-12T19:03:52.719Z,76.20
2017-05-12T19:06:22.569Z,77.00
2017-05-12T19:08:51.696Z,77.80
2017-05-12T19:11:20.918Z,77.40
2017-05-12T19:13:50.010Z,77.70
2017-05-12T19:16:19.124Z,78.00
2017-05-12T19:18:48.230Z,77.80
2017-05-12T19:21:17.340Z,77.30
2017-05-12T19:23:46.467Z,77.50
2017-05-12T19:26:16.303Z,77.80
2017-05-12T19:28:46.264Z,78.50
2017-05-12T19:31:15.409Z,78.30
2017-05-12T19:33:45.235Z,78.70
2017-05-12T19:36:15.101Z,79.00
2017-05-12T19:38:44.988Z,79.10
2017-05-12T19:41:14.379Z,78.40
2017-05-12T19:43:43.474Z,78.20
2017-05-12T19:46:12.550Z,78.00
2017-05-12T19:48:42.384Z,78.60
2017-05-12T19:51:11.467Z,78.80
2017-05-12T19:53:40.575Z,78.00
2017-05-12T19:56:09.654Z,78.00
2017-05-12T19:58:39.798Z,78.30
2017-05-12T20:01:09.081Z,78.50
2017-05-12T20:03:38.235Z,78.40
2017-05-12T20:06:07.322Z,78.10
2017-05-12T20:08:36.440Z,78.00
2017-05-12T20:11:06.279Z,78.10
2017-05-12T20:13:35.360Z,77.90
2017-05-12T20:16:05.292Z,78.00
2017-05-12T20:18:34.359Z,78.60
2017-05-12T20:21:03.444Z,78.60
2017-05-12T20:23:33.298Z,78.50
2017-05-12T20:26:02.416Z,78.50
2017-05-12T20:28:31.774Z,78.50
2017-05-12T20:31:00.901Z,78.60
2017-05-12T20:33:29.961Z,78.30
2017-05-12T20:35:59.052Z,78.50
2017-05-12T20:38:28.854Z,78.00
2017-05-12T20:40:58.790Z,78.30
2017-05-12T20:43:27.865Z,79.00
2017-05-12T20:45:56.957Z,78.80
2017-05-12T20:48:26.787Z,78.50
2017-05-12T20:50:55.900Z,78.60
2017-05-12T20:53:25.187Z,78.50
2017-05-12T20:55:54.272Z,78.20
2017-05-12T20:58:23.348Z,77.90
2017-05-12T21:00:53.188Z,78.00
2017-05-12T21:03:22.253Z,77.80
2017-05-12T21:05:52.546Z,78.10
2017-05-12T21:08:21.618Z,78.00
2017-05-12T21:10:50.711Z,78.40
2017-05-12T21:13:19.834Z,78.20
2017-05-12T21:15:48.907Z,78.20
2017-05-12T21:18:17.999Z,77.70
2017-05-12T21:20:47.099Z,77.80
2017-05-12T21:23:16.290Z,78.00
2017-05-12T21:25:45.457Z,77.70
2017-05-12T21:28:14.570Z,77.80
2017-05-12T21:30:43.644Z,77.60
2017-05-12T21:33:13.492Z,77.00
2017-05-12T21:35:42.675Z,77.10
2017-05-12T21:38:11.742Z,77.20
2017-05-12T21:40:40.835Z,77.00
2017-05-12T21:43:10.756Z,76.90
2017-05-12T21:45:39.833Z,77.30
2017-05-12T21:48:09.885Z,77.20
2017-05-12T21:50:38.947Z,77.70
2017-05-12T21:53:08.760Z,77.80
2017-05-12T21:55:38.599Z,77.90
2017-05-12T21:58:07.665Z,78.00
2017-05-12T22:00:36.856Z,78.10
2017-05-12T22:03:05.919Z,78.30
2017-05-12T22:05:34.995Z,78.50
2017-05-12T22:08:04.094Z,78.10
2017-05-12T22:10:33.176Z,78.30
2017-05-12T22:13:02.438Z,78.50
2017-05-12T22:15:31.519Z,78.60
2017-05-12T22:20:36.941Z,78.70
2017-05-12T22:23:06.008Z,79.00
2017-05-12T22:25:35.099Z,78.80
2017-05-12T22:28:04.167Z,78.70
2017-05-12T22:30:34.007Z,78.60
2017-05-12T22:33:03.807Z,78.30
2017-05-12T22:35:32.925Z,78.10
2017-05-12T22:38:02.004Z,78.00
2017-05-12T22:40:32.152Z,77.80
2017-05-12T22:43:01.213Z,78.20
2017-05-12T22:45:31.039Z,78.10
2017-05-12T22:48:00.132Z,78.00
2017-05-12T22:50:29.201Z,77.80
2017-05-12T22:52:59.238Z,77.60
2017-05-12T22:55:28.304Z,77.60
2017-05-12T22:57:57.403Z,77.30
2017-05-12T23:00:26.486Z,77.70
2017-05-12T23:02:55.561Z,77.80
2017-05-12T23:05:24.751Z,77.90
2017-05-12T23:07:53.855Z,78.20
2017-05-12T23:10:22.927Z,78.20
2017-05-12T23:12:52.013Z,78.00
2017-05-12T23:15:21.187Z,78.00
2017-05-12T23:17:51.120Z,77.80
2017-05-12T23:20:20.198Z,77.80
2017-05-12T23:22:49.286Z,77.70
2017-05-12T23:25:18.386Z,77.80
2017-05-12T23:27:47.470Z,77.50
2017-05-12T23:30:16.579Z,77.70
2017-05-12T23:32:45.651Z,78.60
2017-05-12T23:35:15.591Z,78.40
2017-05-12T23:37:44.659Z,78.70
2017-05-12T23:40:13.770Z,78.90
2017-05-12T23:42:42.891Z,79.10
2017-05-12T23:45:11.959Z,79.10
2017-05-12T23:47:41.364Z,78.90
2017-05-12T23:50:11.175Z,78.70
2017-05-12T23:52:40.247Z,78.80
2017-05-12T23:55:10.085Z,78.60
2017-05-12T23:57:39.896Z,78.40
